createdAt,value
2022-10-23T00:01:26.404Z,101458.97
2022-10-23T00:03:55.515Z,101452.13
2022-10-23T00:06:22.047Z,101450.38
2022-10-23T00:08:49.553Z,101444.25
2022-10-23T00:11:18.836Z,101445.09
2022-10-23T00:13:46.650Z,101436.38
2022-10-23T00:16:13.377Z,101446.56
2022-10-23T00:18:40.424Z,101444.75
2022-10-23T00:21:10.421Z,101439.53
2022-10-23T00:23:37.195Z,101445.50
2022-10-23T00:26:04.163Z,101432.53
2022-10-23T00:28:30.915Z,101440.28
2022-10-23T00:30:57.446Z,101446.22
2022-10-23T00:33:23.923Z,101456.50
2022-10-23T00:35:50.385Z,101450.34
2022-10-23T00:38:16.863Z,101450.25
2022-10-23T00:40:45.394Z,101451.16
2022-10-23T00:43:24.509Z,101449.44
2022-10-23T00:45:51.339Z,101444.28
2022-10-23T00:48:18.827Z,101436.69
2022-10-23T00:50:47.110Z,101429.91
2022-10-23T00:53:15.464Z,101428.13
2022-10-23T00:55:46.955Z,101438.41
2022-10-23T00:58:15.049Z,101428.00
2022-10-23T01:00:48.710Z,101435.88
2022-10-23T01:03:17.026Z,101418.66
2022-10-23T01:05:53.999Z,101415.25
2022-10-23T01:08:32.330Z,101417.03
2022-10-23T01:11:08.618Z,101422.97
2022-10-23T01:13:44.195Z,101416.09
2022-10-23T01:16:37.950Z,101433.25
2022-10-23T01:19:25.397Z,101425.44
2022-10-23T01:22:11.872Z,101418.50
2022-10-23T01:25:08.390Z,101422.78
2022-10-23T01:27:45.152Z,101408.06
2022-10-23T01:30:18.549Z,101406.34
2022-10-23T01:32:52.809Z,101409.78
2022-10-23T01:35:24.844Z,101404.63
2022-10-23T01:38:06.256Z,101410.69
2022-10-23T01:40:35.515Z,101418.53
2022-10-23T01:43:08.514Z,101413.50
2022-10-23T01:45:45.755Z,101412.66
2022-10-23T01:48:16.510Z,101411.16
2022-10-23T01:50:45.885Z,101406.75
2022-10-23T01:53:12.444Z,101391.38
2022-10-23T01:58:15.361Z,101386.25
2022-10-23T02:00:45.574Z,101397.63
2022-10-23T02:03:15.375Z,101395.22
2022-10-23T02:05:43.894Z,101384.94
2022-10-23T02:08:10.986Z,101383.31
2022-10-23T02:10:53.672Z,101375.66
2022-10-23T02:13:34.447Z,101374.84
2022-10-23T02:16:12.489Z,101371.41
2022-10-23T02:18:44.949Z,101380.00
2022-10-23T02:21:16.609Z,101373.25
2022-10-23T02:23:52.471Z,101357.72
2022-10-23T02:26:27.472Z,101362.91
2022-10-23T02:29:11.975Z,101355.97
2022-10-23T02:31:38.658Z,101352.53
2022-10-23T02:34:05.170Z,101349.91
2022-10-23T02:36:32.019Z,101348.25
2022-10-23T02:38:58.484Z,101348.19
2022-10-23T02:41:33.617Z,101332.69
2022-10-23T02:44:23.785Z,101335.28
2022-10-23T02:47:00.825Z,101347.34
2022-10-23T02:49:39.441Z,101342.22
2022-10-23T02:52:16.227Z,101344.78
2022-10-23T02:54:53.427Z,101337.81
2022-10-23T02:57:31.202Z,101335.22
2022-10-23T03:00:07.976Z,101340.44
2022-10-23T03:03:13.612Z,101322.94
2022-10-23T03:05:42.138Z,101329.88
2022-10-23T03:08:10.324Z,101319.66
2022-10-23T03:10:37.002Z,101321.41
2022-10-23T03:13:04.094Z,101329.09
2022-10-23T03:15:30.773Z,101319.50
2022-10-23T03:17:57.262Z,101317.75
2022-10-23T03:20:23.803Z,101317.69
2022-10-23T03:22:50.264Z,101315.91
2022-10-23T03:25:16.797Z,101309.03
2022-10-23T03:27:43.279Z,101305.66
2022-10-23T03:30:10.266Z,101305.63
2022-10-23T03:32:37.045Z,101307.38
2022-10-23T03:35:04.406Z,101303.06
2022-10-23T03:37:30.903Z,101300.56
2022-10-23T03:39:57.381Z,101291.94
2022-10-23T03:42:23.899Z,101270.44
2022-10-23T03:44:50.529Z,101286.00
2022-10-23T03:47:16.980Z,101282.44
2022-10-23T03:49:44.158Z,101299.75
2022-10-23T03:52:10.921Z,101279.81
2022-10-23T03:54:37.527Z,101291.13
2022-10-23T03:57:04.102Z,101295.41
2022-10-23T03:59:30.769Z,101286.91
2022-10-23T04:01:57.444Z,101276.63
2022-10-23T04:04:24.061Z,101274.81
2022-10-23T04:06:51.156Z,101256.69
2022-10-23T04:09:17.718Z,101266.22
2022-10-23T04:11:44.293Z,101264.44
2022-10-23T04:14:14.405Z,101261.84
2022-10-23T04:16:41.123Z,101252.38
2022-10-23T04:19:07.678Z,101235.13
2022-10-23T04:21:34.413Z,101230.03
2022-10-23T04:24:01.220Z,101227.53
2022-10-23T04:26:27.796Z,101224.81
2022-10-23T04:28:54.437Z,101226.56
2022-10-23T04:31:20.976Z,101221.41
2022-10-23T04:33:47.635Z,101217.06
2022-10-23T04:36:14.196Z,101211.03
2022-10-23T04:38:40.660Z,101208.47
2022-10-23T04:41:07.195Z,101201.59
2022-10-23T04:43:33.793Z,101211.00
2022-10-23T04:46:00.911Z,101210.94
2022-10-23T04:48:29.127Z,101204.09
2022-10-23T04:51:04.054Z,101204.13
2022-10-23T04:53:30.789Z,101194.63
2022-10-23T04:55:58.628Z,101192.97
2022-10-23T04:58:26.965Z,101192.91
2022-10-23T05:00:54.242Z,101194.75
2022-10-23T05:03:23.879Z,101190.50
2022-10-23T05:05:53.396Z,101181.88
2022-10-23T05:08:20.516Z,101193.13
2022-10-23T05:10:48.145Z,101180.25
2022-10-23T05:13:15.357Z,101180.25
2022-10-23T05:18:24.456Z,101191.47
2022-10-23T05:20:56.882Z,101192.25
2022-10-23T05:23:25.469Z,101172.47
2022-10-23T05:25:52.234Z,101175.97
2022-10-23T05:28:18.791Z,101171.72
2022-10-23T05:30:45.717Z,101178.63
2022-10-23T05:33:12.398Z,101188.94
2022-10-23T05:35:40.740Z,101177.78
2022-10-23T05:38:08.354Z,101171.78
2022-10-23T05:40:35.004Z,101170.16
2022-10-23T05:43:01.596Z,101172.69
2022-10-23T05:45:28.069Z,101162.28
2022-10-23T05:47:56.540Z,101166.72
2022-10-23T05:50:25.361Z,101164.13
2022-10-23T05:52:51.984Z,101165.84
2022-10-23T05:55:18.499Z,101164.97
2022-10-23T05:57:45.440Z,101159.84
2022-10-23T06:00:13.088Z,101167.63
2022-10-23T06:02:39.689Z,101164.16
2022-10-23T06:05:06.538Z,101166.78
2022-10-23T06:07:35.723Z,101168.53
2022-10-23T06:10:02.968Z,101163.38
2022-10-23T06:12:29.453Z,101159.97
2022-10-23T06:14:55.950Z,101162.59
2022-10-23T06:17:22.565Z,101166.09
2022-10-23T06:19:49.024Z,101166.13
2022-10-23T06:22:15.839Z,101162.75
2022-10-23T06:24:42.466Z,101168.81
2022-10-23T06:27:08.949Z,101158.47
2022-10-23T06:29:35.418Z,101149.94
2022-10-23T06:32:01.954Z,101146.50
2022-10-23T06:34:28.960Z,101130.97
2022-10-23T06:36:55.440Z,101148.22
2022-10-23T06:39:22.244Z,101135.31
2022-10-23T06:41:48.758Z,101132.75
2022-10-23T06:44:15.232Z,101115.53
2022-10-23T06:46:41.897Z,101134.53
2022-10-23T06:49:08.442Z,101135.41
2022-10-23T06:51:34.952Z,101133.69
2022-10-23T06:54:01.431Z,101131.16
2022-10-23T06:56:29.374Z,101121.66
2022-10-23T06:58:56.589Z,101116.56
2022-10-23T07:01:23.178Z,101105.38
2022-10-23T07:03:49.873Z,101114.84
2022-10-23T07:06:16.380Z,101109.72
2022-10-23T07:08:43.019Z,101108.88
2022-10-23T07:11:11.367Z,101107.19
2022-10-23T07:13:38.635Z,101103.78
2022-10-23T07:16:17.915Z,101108.94
2022-10-23T07:18:45.281Z,101113.28
2022-10-23T07:21:11.840Z,101117.66
2022-10-23T07:23:38.735Z,101113.38
2022-10-23T07:26:10.746Z,101128.03
2022-10-23T07:28:37.791Z,101111.69
2022-10-23T07:31:04.602Z,101111.69
2022-10-23T07:33:31.051Z,101106.56
2022-10-23T07:35:59.872Z,101101.44
2022-10-23T07:38:27.450Z,101103.16
2022-10-23T07:40:54.120Z,101097.16
2022-10-23T07:43:21.097Z,101096.31
2022-10-23T07:45:48.592Z,101099.78
2022-10-23T07:48:16.265Z,101093.72
2022-10-23T07:50:42.900Z,101092.00
2022-10-23T07:53:17.966Z,101098.06
2022-10-23T07:55:51.978Z,101098.91
2022-10-23T07:58:18.493Z,101092.88
2022-10-23T08:00:45.452Z,101083.41
2022-10-23T08:03:12.750Z,101076.50
2022-10-23T08:05:39.238Z,101074.72
2022-10-23T08:08:05.711Z,101058.34
2022-10-23T08:10:32.252Z,101058.34
2022-10-23T08:12:58.846Z,101072.13
2022-10-23T08:15:25.329Z,101069.53
2022-10-23T08:17:52.437Z,101081.63
2022-10-23T08:20:18.936Z,101074.72
2022-10-23T08:22:45.483Z,101076.44
2022-10-23T08:25:12.022Z,101059.16
2022-10-23T08:27:39.056Z,101065.16
2022-10-23T08:30:06.215Z,101062.56
2022-10-23T08:32:32.895Z,101058.22
2022-10-23T08:34:59.363Z,101050.47
2022-10-23T08:37:25.893Z,101038.38
2022-10-23T08:39:53.346Z,101047.00
2022-10-23T08:42:24.314Z,101044.34
2022-10-23T08:45:02.302Z,101037.44
2022-10-23T08:47:39.659Z,101035.69
2022-10-23T08:50:14.725Z,101032.19
2022-10-23T08:52:52.239Z,101033.91
2022-10-23T08:55:33.864Z,101029.59
2022-10-23T08:58:07.629Z,101026.97
2022-10-23T09:00:34.537Z,101015.72
2022-10-23T09:03:06.606Z,101014.00
2022-10-23T09:05:55.645Z,101007.91
2022-10-23T09:08:53.276Z,101006.16
2022-10-23T09:11:50.884Z,100999.25
2022-10-23T09:14:25.039Z,100996.63
2022-10-23T09:16:58.609Z,100983.66
2022-10-23T09:19:28.098Z,100984.50
2022-10-23T09:21:55.938Z,100987.94
2022-10-23T09:24:25.142Z,100968.00
2022-10-23T09:26:53.602Z,100975.72
2022-10-23T09:29:25.364Z,100975.69
2022-10-23T09:31:54.783Z,100974.78
2022-10-23T09:34:27.737Z,100969.53
2022-10-23T09:36:57.096Z,100970.41
2022-10-23T09:39:28.765Z,100974.66
2022-10-23T09:41:57.098Z,100966.00
2022-10-23T09:44:32.315Z,100958.19
2022-10-23T09:47:11.326Z,100953.78
2022-10-23T09:49:40.406Z,100954.66
2022-10-23T09:52:09.859Z,100954.66
2022-10-23T09:54:48.620Z,100952.06
2022-10-23T09:57:18.095Z,100950.28
2022-10-23T09:59:44.638Z,100937.38
2022-10-23T10:02:27.084Z,100945.97
2022-10-23T10:04:53.595Z,100949.50
2022-10-23T10:07:32.155Z,100950.41
2022-10-23T10:10:01.245Z,100941.78
2022-10-23T10:13:03.719Z,100941.72
2022-10-23T10:15:55.255Z,100927.09
2022-10-23T10:18:33.323Z,100921.84
2022-10-23T10:21:21.801Z,100920.91
2022-10-23T10:24:27.143Z,100920.06
2022-10-23T10:27:04.726Z,100924.31
2022-10-23T10:29:40.136Z,100920.88
2022-10-23T10:32:12.571Z,100928.69
2022-10-23T10:34:51.095Z,100916.59
2022-10-23T10:37:24.992Z,100903.63
2022-10-23T10:39:58.934Z,100913.06
2022-10-23T10:43:11.863Z,100900.88
2022-10-23T10:45:41.893Z,100892.19
2022-10-23T10:48:31.318Z,100880.88
2022-10-23T10:51:05.789Z,100859.97
2022-10-23T10:54:01.448Z,100862.56
2022-10-23T10:56:29.688Z,100863.34
2022-10-23T10:59:11.150Z,100859.91
2022-10-23T11:02:06.263Z,100865.03
2022-10-23T11:04:45.784Z,100854.72
2022-10-23T11:07:18.887Z,100843.41
2022-10-23T11:09:46.284Z,100846.00
2022-10-23T11:12:26.294Z,100837.28
2022-10-23T11:14:53.164Z,100831.19
2022-10-23T11:17:31.431Z,100819.94
2022-10-23T11:20:16.587Z,100808.66
2022-10-23T11:22:47.395Z,100799.19
2022-10-23T11:25:32.227Z,100804.31
2022-10-23T11:28:16.356Z,100787.91
2022-10-23T11:30:42.803Z,100792.94
2022-10-23T11:33:57.199Z,100778.94
2022-10-23T11:37:01.632Z,100760.44
2022-10-23T11:39:33.635Z,100747.28
2022-10-23T11:42:15.035Z,100750.63
2022-10-23T11:44:46.703Z,100747.84
2022-10-23T11:47:40.357Z,100751.94
2022-10-23T11:50:07.125Z,100741.44
2022-10-23T11:53:16.182Z,100738.72
2022-10-23T11:56:19.484Z,100737.63
2022-10-23T11:58:49.508Z,100727.19
2022-10-23T12:01:44.184Z,100732.94
2022-10-23T12:04:13.535Z,100738.06
2022-10-23T12:06:49.969Z,100710.25
2022-10-23T12:09:39.364Z,100704.81
2022-10-23T12:12:08.941Z,100702.13
2022-10-23T12:14:49.335Z,100697.84
2022-10-23T12:17:30.245Z,100685.56
2022-10-23T12:20:19.400Z,100676.78
2022-10-23T12:23:24.895Z,100680.91
2022-10-23T12:26:06.948Z,100689.59
2022-10-23T12:28:52.899Z,100674.94
2022-10-23T12:31:39.996Z,100674.00
2022-10-23T12:34:29.609Z,100664.50
2022-10-23T12:37:14.461Z,100655.75
2022-10-23T12:39:41.007Z,100651.44
2022-10-23T12:42:29.041Z,100656.69
2022-10-23T12:45:05.717Z,100649.75
2022-10-23T12:47:32.621Z,100639.47
2022-10-23T12:49:59.704Z,100635.22
2022-10-23T12:52:26.609Z,100627.41
2022-10-23T12:54:53.127Z,100624.69
2022-10-23T12:57:22.668Z,100626.47
2022-10-23T12:59:51.822Z,100623.13
2022-10-23T13:02:30.217Z,100618.06
2022-10-23T13:05:01.534Z,100622.47
2022-10-23T13:07:31.920Z,100623.28
2022-10-23T13:09:59.323Z,100599.75
2022-10-23T13:12:29.171Z,100603.06
2022-10-23T13:14:58.799Z,100602.22
2022-10-23T13:17:41.238Z,100597.06
2022-10-23T13:20:17.069Z,100592.59
2022-10-23T13:22:44.994Z,100589.03
2022-10-23T13:25:26.952Z,100593.41
2022-10-23T13:28:19.143Z,100588.31
2022-10-23T13:30:56.808Z,100584.63
2022-10-23T13:33:25.893Z,100581.00
2022-10-23T13:36:19.457Z,100568.47
2022-10-23T13:39:14.225Z,100554.44
2022-10-23T13:41:47.649Z,100548.19
2022-10-23T13:44:20.201Z,100548.28
2022-10-23T13:46:48.311Z,100541.19
2022-10-23T13:49:16.231Z,100516.97
2022-10-23T13:51:55.111Z,100530.63
2022-10-23T13:56:55.829Z,100528.84
2022-10-23T13:59:23.478Z,100517.59
2022-10-23T14:01:50.762Z,100513.97
2022-10-23T14:04:19.139Z,100505.16
2022-10-23T14:06:45.856Z,100510.38
2022-10-23T14:09:15.193Z,100507.75
2022-10-23T14:11:42.254Z,100502.63
2022-10-23T14:14:09.040Z,100503.66
2022-10-23T14:16:35.706Z,100496.47
2022-10-23T14:19:02.207Z,100496.41
2022-10-23T14:21:29.000Z,100497.19
2022-10-23T14:23:55.596Z,100485.25
2022-10-23T14:26:25.177Z,100490.34
2022-10-23T14:28:57.510Z,100492.81
2022-10-23T14:31:26.587Z,100486.75
2022-10-23T14:33:57.303Z,100470.41
2022-10-23T14:36:24.589Z,100477.06
2022-10-23T14:38:55.897Z,100476.25
2022-10-23T14:41:22.510Z,100484.16
2022-10-23T14:43:48.961Z,100486.31
2022-10-23T14:46:17.761Z,100479.19
2022-10-23T14:48:46.258Z,100483.56
2022-10-23T14:51:24.747Z,100479.56
2022-10-23T14:53:58.808Z,100482.91
2022-10-23T14:56:26.342Z,100477.91
2022-10-23T14:58:53.607Z,100470.28
2022-10-23T15:01:20.267Z,100469.25
2022-10-23T15:03:47.055Z,100465.97
2022-10-23T15:06:17.543Z,100455.72
2022-10-23T15:08:45.009Z,100454.16
2022-10-23T15:11:12.702Z,100445.63
2022-10-23T15:13:39.466Z,100455.13
2022-10-23T15:16:08.494Z,100442.91
2022-10-23T15:18:38.886Z,100446.56
2022-10-23T15:21:07.686Z,100434.56
2022-10-23T15:23:35.743Z,100426.63
2022-10-23T15:26:05.207Z,100431.72
2022-10-23T15:28:33.173Z,100425.91
2022-10-23T15:31:00.536Z,100427.84
2022-10-23T15:33:27.641Z,100428.84
2022-10-23T15:35:54.413Z,100424.66
2022-10-23T15:38:22.407Z,100403.91
2022-10-23T15:40:49.124Z,100407.38
2022-10-23T15:43:17.055Z,100407.13
2022-10-23T15:45:43.562Z,100409.13
2022-10-23T15:48:10.059Z,100406.78
2022-10-23T15:50:37.149Z,100404.16
2022-10-23T15:53:04.320Z,100396.09
2022-10-23T15:55:30.901Z,100385.00
2022-10-23T15:58:01.964Z,100386.69
2022-10-23T16:00:28.530Z,100383.88
2022-10-23T16:02:55.146Z,100386.63
2022-10-23T16:05:21.678Z,100372.09
2022-10-23T16:07:48.230Z,100373.09
2022-10-23T16:10:14.710Z,100362.09
2022-10-23T16:12:41.460Z,100357.13
2022-10-23T16:15:09.140Z,100362.91
2022-10-23T16:17:35.668Z,100367.06
2022-10-23T16:20:02.120Z,100363.50
2022-10-23T16:22:28.626Z,100364.66
2022-10-23T16:24:55.358Z,100363.03
2022-10-23T16:27:21.900Z,100364.78
2022-10-23T16:29:48.407Z,100358.75
2022-10-23T16:32:14.977Z,100359.59
2022-10-23T16:34:41.537Z,100358.59
2022-10-23T16:37:08.086Z,100359.56
2022-10-23T16:39:36.085Z,100364.78
2022-10-23T16:42:03.347Z,100357.13
2022-10-23T16:44:29.887Z,100352.03
2022-10-23T16:46:56.771Z,100356.38
2022-10-23T16:49:23.291Z,100339.97
2022-10-23T16:51:49.806Z,100341.41
2022-10-23T16:54:17.923Z,100337.22
2022-10-23T16:56:45.243Z,100339.88
2022-10-23T16:59:11.715Z,100335.47
2022-10-23T17:01:38.528Z,100319.66
2022-10-23T17:04:06.448Z,100311.97
2022-10-23T17:06:33.530Z,100309.16
2022-10-23T17:09:01.250Z,100318.75
2022-10-23T17:11:31.265Z,100315.28
2022-10-23T17:14:04.075Z,100323.13
2022-10-23T17:16:40.792Z,100335.47
2022-10-23T17:19:15.984Z,100339.00
2022-10-23T17:21:47.635Z,100339.47
2022-10-23T17:24:14.121Z,100339.81
2022-10-23T17:26:41.430Z,100331.94
2022-10-23T17:29:09.937Z,100338.69
2022-10-23T17:31:41.395Z,100340.59
2022-10-23T17:34:11.361Z,100340.75
2022-10-23T17:36:43.276Z,100340.97
2022-10-23T17:39:11.881Z,100341.66
2022-10-23T17:41:39.134Z,100341.59
2022-10-23T17:44:05.704Z,100342.31
2022-10-23T17:46:32.340Z,100330.50
2022-10-23T17:51:31.401Z,100346.69
2022-10-23T17:54:02.059Z,100335.69
2022-10-23T17:56:31.443Z,100329.47
2022-10-23T17:59:05.326Z,100322.53
2022-10-23T18:01:32.564Z,100330.44
2022-10-23T18:04:02.058Z,100316.84
2022-10-23T18:06:34.550Z,100318.50
2022-10-23T18:09:02.400Z,100314.88
2022-10-23T18:11:33.806Z,100325.97
2022-10-23T18:14:01.028Z,100332.06
2022-10-23T18:16:28.073Z,100321.63
2022-10-23T18:18:55.032Z,100319.13
2022-10-23T18:21:23.535Z,100311.53
2022-10-23T18:23:50.882Z,100316.44
2022-10-23T18:26:22.440Z,100312.03
2022-10-23T18:28:50.462Z,100310.28
2022-10-23T18:31:19.052Z,100306.88
2022-10-23T18:33:46.812Z,100295.56
2022-10-23T18:36:21.130Z,100285.81
2022-10-23T18:38:48.680Z,100290.03
2022-10-23T18:41:16.436Z,100300.19
2022-10-23T18:43:44.710Z,100292.25
2022-10-23T18:46:13.201Z,100306.63
2022-10-23T18:48:40.026Z,100310.47
2022-10-23T18:51:15.669Z,100307.94
2022-10-23T18:53:45.750Z,100293.03
2022-10-23T18:56:13.449Z,100279.97
2022-10-23T18:58:39.990Z,100265.56
2022-10-23T19:01:06.651Z,100268.41
2022-10-23T19:03:33.565Z,100269.25
2022-10-23T19:06:00.196Z,100253.31
2022-10-23T19:08:26.757Z,100251.72
2022-10-23T19:10:53.753Z,100263.19
2022-10-23T19:13:21.259Z,100267.59
2022-10-23T19:15:47.763Z,100271.06
2022-10-23T19:18:14.289Z,100282.66
2022-10-23T19:20:43.117Z,100287.91
2022-10-23T19:23:12.739Z,100286.53
2022-10-23T19:25:40.838Z,100279.88
2022-10-23T19:28:07.349Z,100313.13
2022-10-23T19:30:34.624Z,100335.91
2022-10-23T19:33:01.165Z,100332.75
2022-10-23T19:35:28.188Z,100405.66
2022-10-23T19:37:54.737Z,100398.56
2022-10-23T19:40:24.110Z,100367.06
2022-10-23T19:42:50.595Z,100367.31
2022-10-23T19:45:17.216Z,100358.81
2022-10-23T19:47:44.747Z,100365.06
2022-10-23T19:50:12.223Z,100365.97
2022-10-23T19:52:38.812Z,100362.56
2022-10-23T19:55:06.636Z,100372.94
2022-10-23T19:57:37.087Z,100377.38
2022-10-23T20:00:06.496Z,100385.09
2022-10-23T20:05:07.994Z,100386.00
2022-10-23T20:07:35.907Z,100385.16
2022-10-23T20:10:05.023Z,100354.09
2022-10-23T20:12:31.778Z,100341.09
2022-10-23T20:14:59.033Z,100350.78
2022-10-23T20:17:26.187Z,100339.06
2022-10-23T20:19:52.818Z,100364.06
2022-10-23T20:22:19.651Z,100368.56
2022-10-23T20:24:46.161Z,100358.38
2022-10-23T20:27:18.666Z,100360.22
2022-10-23T20:29:45.678Z,100363.75
2022-10-23T20:32:12.766Z,100362.16
2022-10-23T20:34:39.746Z,100363.94
2022-10-23T20:37:06.289Z,100360.59
2022-10-23T20:39:35.625Z,100365.03
2022-10-23T20:42:03.745Z,100357.41
2022-10-23T20:44:30.375Z,100363.44
2022-10-23T20:46:57.162Z,100355.69
2022-10-23T20:49:24.132Z,100370.47
2022-10-23T20:51:55.927Z,100368.81
2022-10-23T20:54:28.681Z,100372.31
2022-10-23T20:56:57.061Z,100366.38
2022-10-23T20:59:23.925Z,100375.91
2022-10-23T21:01:53.337Z,100370.03
2022-10-23T21:04:23.171Z,100382.09
2022-10-23T21:07:09.581Z,100375.13
2022-10-23T21:09:37.915Z,100373.53
2022-10-23T21:12:06.642Z,100382.16
2022-10-23T21:14:33.516Z,100384.06
2022-10-23T21:17:00.232Z,100376.31
2022-10-23T21:19:26.793Z,100373.72
2022-10-23T21:21:54.938Z,100375.53
2022-10-23T21:24:21.705Z,100374.66
2022-10-23T21:26:48.321Z,100372.09
2022-10-23T21:29:19.410Z,100365.28
2022-10-23T21:31:53.452Z,100363.53
2022-10-23T21:34:20.111Z,100365.25
2022-10-23T21:37:11.372Z,100360.81
2022-10-23T21:39:33.378Z,100356.53
2022-10-23T21:42:00.052Z,100370.28
2022-10-23T21:44:27.049Z,100372.91
2022-10-23T21:46:53.593Z,100378.91
2022-10-23T21:49:20.129Z,100374.59
2022-10-23T21:51:47.415Z,100376.28
2022-10-23T21:54:17.036Z,100367.66
2022-10-23T21:56:47.713Z,100364.19
2022-10-23T21:59:17.697Z,100372.00
2022-10-23T22:01:45.815Z,100371.09
2022-10-23T22:04:17.445Z,100375.47
2022-10-23T22:06:45.304Z,100367.81
2022-10-23T22:09:14.566Z,100373.00
2022-10-23T22:11:41.625Z,100391.16
2022-10-23T22:14:08.186Z,100399.81
2022-10-23T22:16:34.798Z,100387.72
2022-10-23T22:19:03.195Z,100393.69
2022-10-23T22:21:30.832Z,100389.41
2022-10-23T22:23:59.502Z,100379.88
2022-10-23T22:26:38.674Z,100369.59
2022-10-23T22:29:11.170Z,100371.31
2022-10-23T22:31:38.958Z,100374.84
2022-10-23T22:34:18.706Z,100379.22
2022-10-23T22:36:55.541Z,100372.38
2022-10-23T22:39:23.313Z,100373.09
2022-10-23T22:41:50.375Z,100367.09
2022-10-23T22:44:16.909Z,100367.13
2022-10-23T22:46:44.476Z,100372.31
2022-10-23T22:49:11.193Z,100374.84
2022-10-23T22:51:39.616Z,100368.84
2022-10-23T22:54:06.602Z,100364.53
2022-10-23T22:56:35.130Z,100368.03
2022-10-23T22:59:02.146Z,100367.94
2022-10-23T23:01:28.604Z,100373.09
2022-10-23T23:03:58.155Z,100374.00
2022-10-23T23:06:25.125Z,100373.78
2022-10-23T23:08:52.846Z,100368.59
2022-10-23T23:11:21.123Z,100372.16
2022-10-23T23:13:48.206Z,100368.53
2022-10-23T23:16:28.074Z,100365.00
2022-10-23T23:18:57.743Z,100377.19
2022-10-23T23:21:24.411Z,100362.47
2022-10-23T23:23:51.215Z,100363.31
2022-10-23T23:26:17.928Z,100353.72
2022-10-23T23:28:46.083Z,100348.69
2022-10-23T23:31:18.120Z,100353.88
2022-10-23T23:33:44.752Z,100341.81
2022-10-23T23:36:13.976Z,100338.28
2022-10-23T23:38:40.601Z,100335.72
2022-10-23T23:41:07.589Z,100332.34
2022-10-23T23:43:34.043Z,100335.03
2022-10-23T23:46:00.572Z,100324.72
2022-10-23T23:48:27.634Z,100329.00
2022-10-23T23:50:54.237Z,100328.88
2022-10-23T23:53:20.728Z,100327.03
2022-10-23T23:55:47.264Z,100333.19
2022-10-23T23:58:13.811Z,100324.44
